createdAt,value
2023-01-10T00:00:10.717Z,0.80
2023-01-10T00:00:29.265Z,0.70
2023-01-10T00:00:41.326Z,0.50
2023-01-10T00:00:53.392Z,0.50
2023-01-10T00:01:07.173Z,0.60
2023-01-10T00:01:19.201Z,0.57
2023-01-10T00:01:31.340Z,0.52
2023-01-10T00:01:43.388Z,0.60
2023-01-10T00:01:56.704Z,0.52
2023-01-10T00:02:08.699Z,0.60
2023-01-10T00:02:20.635Z,0.65
2023-01-10T00:02:32.709Z,0.63
2023-01-10T00:02:45.352Z,0.60
2023-01-10T00:02:57.621Z,0.60
2023-01-10T00:03:11.560Z,0.60
2023-01-10T00:03:23.602Z,0.60
2023-01-10T00:03:35.665Z,0.60
2023-01-10T00:03:47.642Z,0.60
2023-01-10T00:03:59.795Z,0.60
2023-01-10T00:04:11.813Z,0.60
2023-01-10T00:04:26.436Z,0.60
2023-01-10T00:04:38.527Z,0.60
2023-01-10T00:04:50.513Z,0.60
2023-01-10T00:05:02.530Z,0.60
2023-01-10T00:05:14.479Z,0.52
2023-01-10T00:05:26.533Z,0.57
2023-01-10T00:05:40.317Z,0.50
2023-01-10T00:05:52.296Z,0.60
2023-01-10T00:06:04.256Z,0.60
2023-01-10T00:06:16.312Z,0.60
2023-01-10T00:06:28.420Z,0.50
2023-01-10T00:06:40.416Z,0.52
2023-01-10T00:06:53.055Z,0.60
2023-01-10T00:07:05.049Z,0.60
2023-01-10T00:07:17.074Z,0.60
2023-01-10T00:07:29.067Z,0.60
2023-01-10T00:07:41.077Z,0.70
2023-01-10T00:07:53.310Z,0.70
2023-01-10T00:08:06.704Z,0.70
2023-01-10T00:08:18.675Z,0.70
2023-01-10T00:08:30.655Z,0.70
2023-01-10T00:08:42.726Z,0.70
2023-01-10T00:08:54.727Z,0.70
2023-01-10T00:09:06.784Z,0.80
2023-01-10T00:09:18.801Z,0.70
2023-01-10T00:09:30.795Z,0.60
2023-01-10T00:09:45.884Z,0.60
2023-01-10T00:09:57.826Z,0.77
2023-01-10T00:10:10.830Z,0.80
2023-01-10T00:10:22.879Z,0.70
2023-01-10T00:10:35.474Z,0.70
2023-01-10T00:10:51.156Z,0.68
2023-01-10T00:11:23.098Z,0.70
2023-01-10T00:11:53.511Z,0.50
2023-01-10T00:12:24.444Z,0.68
2023-01-10T00:12:55.518Z,0.80
2023-01-10T00:13:23.710Z,0.65
2023-01-10T00:13:35.653Z,0.70
2023-01-10T00:13:47.671Z,0.70
2023-01-10T00:13:59.884Z,0.70
2023-01-10T00:14:14.873Z,0.60
2023-01-10T00:14:29.113Z,0.63
2023-01-10T00:14:41.193Z,0.70
2023-01-10T00:14:53.191Z,0.75
2023-01-10T00:15:05.681Z,0.73
2023-01-10T00:15:17.698Z,0.70
2023-01-10T00:15:32.584Z,0.65
2023-01-10T00:15:44.697Z,0.80
2023-01-10T00:15:56.755Z,0.80
2023-01-10T00:16:09.447Z,0.70
2023-01-10T00:16:21.712Z,0.70
2023-01-10T00:16:33.747Z,0.60
2023-01-10T00:16:45.721Z,0.63
2023-01-10T00:16:57.782Z,0.70
2023-01-10T00:17:09.766Z,0.70
2023-01-10T00:17:21.910Z,0.80
2023-01-10T00:17:33.941Z,0.70
2023-01-10T00:17:46.020Z,0.70
2023-01-10T00:17:58.006Z,0.70
2023-01-10T00:18:10.496Z,0.70
2023-01-10T00:18:23.106Z,0.68
2023-01-10T00:18:35.071Z,0.65
2023-01-10T00:18:47.160Z,0.60
2023-01-10T00:18:59.129Z,0.63
2023-01-10T00:19:11.245Z,0.60
2023-01-10T00:19:23.190Z,0.57
2023-01-10T00:19:35.142Z,0.60
2023-01-10T00:19:47.291Z,0.70
2023-01-10T00:19:59.287Z,0.70
2023-01-10T00:20:11.888Z,0.70
2023-01-10T00:20:23.890Z,0.70
2023-01-10T00:20:36.049Z,0.80
2023-01-10T00:20:51.672Z,0.90
2023-01-10T00:21:03.922Z,0.70
2023-01-10T00:21:16.596Z,0.73
2023-01-10T00:21:28.777Z,0.80
2023-01-10T00:21:40.760Z,0.90
2023-01-10T00:21:53.394Z,0.80
2023-01-10T00:22:08.971Z,0.80
2023-01-10T00:22:24.908Z,0.88
2023-01-10T00:22:36.948Z,0.95
2023-01-10T00:22:50.851Z,0.95
2023-01-10T00:23:03.736Z,0.90
2023-01-10T00:23:17.240Z,0.90
2023-01-10T00:23:29.286Z,0.80
2023-01-10T00:23:43.229Z,0.90
2023-01-10T00:23:55.207Z,0.80
2023-01-10T00:24:19.623Z,0.80
2023-01-10T00:24:31.758Z,0.80
2023-01-10T00:24:44.197Z,0.80
2023-01-10T00:24:56.243Z,0.95
2023-01-10T00:25:08.383Z,0.90
2023-01-10T00:25:21.191Z,0.77
2023-01-10T00:25:34.323Z,0.82
2023-01-10T00:25:46.655Z,1.00
2023-01-10T00:25:59.261Z,1.00
2023-01-10T00:26:12.050Z,0.82
2023-01-10T00:26:24.066Z,0.88
2023-01-10T00:26:36.081Z,0.90
2023-01-10T00:26:53.135Z,1.00
2023-01-10T00:27:06.983Z,1.00
2023-01-10T00:27:24.698Z,0.90
2023-01-10T00:27:36.837Z,0.90
2023-01-10T00:28:04.632Z,0.88
2023-01-10T00:28:20.078Z,0.80
2023-01-10T00:28:34.766Z,0.93
2023-01-10T00:28:46.728Z,1.10
2023-01-10T00:28:58.654Z,1.20
2023-01-10T00:29:10.766Z,1.27
2023-01-10T00:29:34.008Z,1.20
2023-01-10T00:29:46.824Z,1.10
2023-01-10T00:30:06.981Z,1.02
2023-01-10T00:30:19.367Z,1.00
2023-01-10T00:30:33.683Z,0.90
2023-01-10T00:31:01.121Z,0.85
2023-01-10T00:31:13.806Z,0.90
2023-01-10T00:31:25.964Z,0.90
2023-01-10T00:31:38.041Z,0.88
2023-01-10T00:31:49.996Z,0.93
2023-01-10T00:32:02.029Z,0.90
2023-01-10T00:32:13.993Z,0.90
2023-01-10T00:32:25.954Z,0.80
2023-01-10T00:32:37.869Z,0.90
2023-01-10T00:32:50.168Z,0.90
2023-01-10T00:33:02.100Z,0.80
2023-01-10T00:33:19.745Z,0.80
2023-01-10T00:33:33.091Z,0.90
2023-01-10T00:33:45.184Z,1.10
2023-01-10T00:33:57.175Z,1.00
2023-01-10T00:34:09.202Z,0.82
2023-01-10T00:34:21.223Z,0.80
2023-01-10T00:34:37.061Z,0.98
2023-01-10T00:34:49.088Z,1.00
2023-01-10T00:35:01.875Z,1.08
2023-01-10T00:35:13.977Z,1.20
2023-01-10T00:35:26.594Z,1.30
2023-01-10T00:35:38.633Z,1.20
2023-01-10T00:35:50.956Z,1.10
2023-01-10T00:36:05.961Z,1.00
2023-01-10T00:36:21.116Z,0.80
2023-01-10T00:36:33.156Z,0.90
2023-01-10T00:36:47.483Z,1.05
2023-01-10T00:36:59.535Z,0.98
2023-01-10T00:37:11.642Z,1.00
2023-01-10T00:37:23.647Z,1.10
2023-01-10T00:37:35.745Z,0.98
2023-01-10T00:37:47.810Z,0.93
2023-01-10T00:38:05.787Z,1.00
2023-01-10T00:38:17.907Z,1.13
2023-01-10T00:38:31.114Z,1.20
2023-01-10T00:38:43.091Z,1.20
2023-01-10T00:38:55.125Z,1.20
2023-01-10T00:39:07.429Z,1.20
2023-01-10T00:39:20.848Z,1.20
2023-01-10T00:39:32.801Z,1.08
2023-01-10T00:39:44.850Z,1.05
2023-01-10T00:39:56.896Z,1.00
2023-01-10T00:40:10.751Z,1.02
2023-01-10T00:40:22.790Z,0.98
2023-01-10T00:40:34.810Z,1.00
2023-01-10T00:40:46.838Z,1.08
2023-01-10T00:40:59.102Z,1.15
2023-01-10T00:41:31.076Z,1.10
2023-01-10T00:42:01.491Z,1.20
2023-01-10T00:42:31.894Z,1.30
2023-01-10T00:43:02.540Z,1.10
2023-01-10T00:43:33.220Z,1.17
2023-01-10T00:43:56.953Z,1.00
2023-01-10T00:44:09.098Z,1.05
2023-01-10T00:44:21.149Z,1.10
2023-01-10T00:44:33.117Z,1.05
2023-01-10T00:44:46.917Z,1.17
2023-01-10T00:44:59.006Z,1.10
2023-01-10T00:45:11.978Z,1.10
2023-01-10T00:45:25.184Z,1.10
2023-01-10T00:45:37.241Z,1.30
2023-01-10T00:45:49.304Z,1.30
2023-01-10T00:46:02.821Z,1.15
2023-01-10T00:46:14.914Z,1.20
2023-01-10T00:46:27.479Z,1.20
2023-01-10T00:46:39.802Z,1.20
2023-01-10T00:46:52.695Z,1.20
2023-01-10T00:47:04.771Z,1.10
2023-01-10T00:47:16.858Z,1.17
2023-01-10T00:47:28.923Z,1.20
2023-01-10T00:47:41.095Z,1.17
2023-01-10T00:47:53.125Z,1.05
2023-01-10T00:48:05.412Z,1.20
2023-01-10T00:48:17.587Z,1.30
2023-01-10T00:48:29.938Z,1.17
2023-01-10T00:48:41.933Z,1.00
2023-01-10T00:48:54.890Z,1.00
2023-01-10T00:49:08.369Z,1.10
2023-01-10T00:49:20.455Z,1.20
2023-01-10T00:49:32.511Z,1.27
2023-01-10T00:49:44.557Z,1.20
2023-01-10T00:49:56.529Z,1.20
2023-01-10T00:50:09.098Z,1.30
2023-01-10T00:50:21.106Z,1.35
2023-01-10T00:50:33.254Z,1.20
2023-01-10T00:50:46.354Z,1.20
2023-01-10T00:50:58.368Z,1.17
2023-01-10T00:51:10.440Z,1.20
2023-01-10T00:51:22.441Z,1.15
2023-01-10T00:51:41.583Z,1.20
2023-01-10T00:51:58.119Z,1.30
2023-01-10T00:52:10.263Z,1.20
2023-01-10T00:52:22.289Z,1.13
2023-01-10T00:52:34.563Z,1.20
2023-01-10T00:52:46.600Z,1.20
2023-01-10T00:52:58.603Z,1.10
2023-01-10T00:53:10.746Z,1.20
2023-01-10T00:53:22.917Z,1.20
2023-01-10T00:53:34.985Z,1.15
2023-01-10T00:53:47.064Z,1.10
2023-01-10T00:53:59.218Z,1.15
2023-01-10T00:54:12.519Z,1.20
2023-01-10T00:54:24.629Z,1.20
2023-01-10T00:54:36.649Z,1.20
2023-01-10T00:54:48.596Z,1.20
2023-01-10T00:55:00.611Z,1.20
2023-01-10T00:55:12.685Z,1.13
2023-01-10T00:55:24.691Z,1.17
2023-01-10T00:55:37.108Z,1.20
2023-01-10T00:55:49.122Z,1.33
2023-01-10T00:56:01.529Z,1.20
2023-01-10T00:56:13.577Z,1.13
2023-01-10T00:56:25.798Z,1.13
2023-01-10T00:56:38.285Z,1.20
2023-01-10T00:56:50.329Z,1.20
2023-01-10T00:57:02.321Z,1.23
2023-01-10T00:57:14.384Z,1.30
2023-01-10T00:57:26.400Z,1.40
2023-01-10T00:57:38.824Z,1.30
2023-01-10T00:57:50.808Z,1.20
2023-01-10T00:58:03.207Z,1.10
2023-01-10T00:58:16.085Z,1.13
2023-01-10T00:58:28.029Z,1.35
2023-01-10T00:58:40.148Z,1.42
2023-01-10T00:58:52.140Z,1.40
2023-01-10T00:59:05.662Z,1.30
2023-01-10T00:59:17.685Z,1.23
2023-01-10T00:59:29.635Z,1.23
2023-01-10T00:59:41.623Z,1.25
2023-01-10T00:59:53.687Z,1.23
2023-01-10T01:00:09.150Z,1.30
2023-01-10T01:00:21.278Z,1.30
2023-01-10T01:00:33.268Z,1.25
2023-01-10T01:00:51.224Z,1.20
2023-01-10T01:01:03.287Z,1.30
2023-01-10T01:01:15.409Z,1.33
2023-01-10T01:01:27.533Z,1.20
2023-01-10T01:01:39.705Z,1.10
2023-01-10T01:01:52.699Z,1.10
2023-01-10T01:02:04.853Z,1.30
2023-01-10T01:02:16.974Z,1.30
2023-01-10T01:02:29.253Z,1.25
2023-01-10T01:02:41.255Z,1.38
2023-01-10T01:02:53.531Z,1.38
2023-01-10T01:03:06.825Z,1.38
2023-01-10T01:03:21.850Z,1.30
2023-01-10T01:03:33.894Z,1.30
2023-01-10T01:03:45.892Z,1.30
2023-01-10T01:03:59.401Z,1.20
2023-01-10T01:04:11.369Z,1.10
2023-01-10T01:04:23.422Z,1.10
2023-01-10T01:04:35.373Z,1.00
2023-01-10T01:04:47.417Z,1.10
2023-01-10T01:04:59.435Z,1.20
2023-01-10T01:05:11.443Z,1.30
2023-01-10T01:05:23.486Z,1.30
2023-01-10T01:05:41.468Z,1.40
2023-01-10T01:05:53.564Z,1.40
2023-01-10T01:06:06.527Z,1.23
2023-01-10T01:06:18.501Z,1.23
2023-01-10T01:06:32.931Z,1.20
2023-01-10T01:06:46.606Z,1.20
2023-01-10T01:07:04.988Z,1.45
2023-01-10T01:07:16.952Z,1.60
2023-01-10T01:07:28.917Z,1.42
2023-01-10T01:07:40.894Z,1.23
2023-01-10T01:07:52.953Z,1.13
2023-01-10T01:08:04.906Z,1.10
2023-01-10T01:08:19.015Z,1.10
2023-01-10T01:08:30.969Z,1.05
2023-01-10T01:08:42.894Z,1.17
2023-01-10T01:08:54.806Z,1.40
2023-01-10T01:09:06.790Z,1.50
2023-01-10T01:09:18.956Z,1.40
2023-01-10T01:09:31.139Z,1.40
2023-01-10T01:10:01.905Z,1.38
2023-01-10T01:10:29.244Z,1.35
2023-01-10T01:10:41.437Z,1.20
2023-01-10T01:10:53.490Z,1.10
2023-01-10T01:11:05.652Z,1.13
2023-01-10T01:11:17.813Z,1.10
2023-01-10T01:11:29.953Z,1.00
2023-01-10T01:11:42.543Z,1.02
2023-01-10T01:11:56.187Z,1.10
2023-01-10T01:12:08.245Z,1.08
2023-01-10T01:12:20.355Z,1.20
2023-01-10T01:12:32.412Z,1.42
2023-01-10T01:12:44.569Z,1.40
2023-01-10T01:13:00.469Z,1.50
2023-01-10T01:13:17.817Z,1.45
2023-01-10T01:13:30.010Z,1.40
2023-01-10T01:13:42.110Z,1.27
2023-01-10T01:13:54.335Z,1.35
2023-01-10T01:14:06.616Z,1.30
2023-01-10T01:14:18.702Z,1.25
2023-01-10T01:14:30.770Z,1.02
2023-01-10T01:14:42.784Z,1.10
2023-01-10T01:14:54.769Z,1.23
2023-01-10T01:15:07.393Z,1.25
2023-01-10T01:15:19.519Z,1.10
2023-01-10T01:15:31.881Z,1.13
2023-01-10T01:15:44.684Z,1.13
2023-01-10T01:16:00.756Z,1.20
2023-01-10T01:16:12.902Z,1.35
2023-01-10T01:16:24.890Z,1.33
2023-01-10T01:16:36.818Z,1.42
2023-01-10T01:16:48.815Z,1.30
2023-01-10T01:17:00.719Z,1.20
2023-01-10T01:17:12.664Z,1.10
2023-01-10T01:17:24.705Z,1.23
2023-01-10T01:17:36.714Z,1.20
2023-01-10T01:17:48.707Z,1.08
2023-01-10T01:18:01.518Z,1.10
2023-01-10T01:18:16.259Z,1.20
2023-01-10T01:18:28.395Z,1.20
2023-01-10T01:18:40.403Z,1.17
2023-01-10T01:18:52.432Z,1.20
2023-01-10T01:19:04.486Z,1.27
2023-01-10T01:19:16.542Z,1.20
2023-01-10T01:19:28.600Z,1.10
2023-01-10T01:19:40.658Z,1.23
2023-01-10T01:19:52.689Z,1.20
2023-01-10T01:20:05.459Z,1.17
2023-01-10T01:20:17.988Z,1.13
2023-01-10T01:20:30.783Z,1.15
2023-01-10T01:20:43.580Z,1.00
2023-01-10T01:20:57.997Z,1.17
2023-01-10T01:21:10.007Z,1.27
2023-01-10T01:21:22.157Z,1.10
2023-01-10T01:21:34.223Z,1.00
2023-01-10T01:21:46.178Z,1.00
2023-01-10T01:21:58.130Z,1.10
2023-01-10T01:22:10.339Z,1.10
2023-01-10T01:22:22.391Z,1.10
2023-01-10T01:22:34.322Z,1.00
2023-01-10T01:22:46.362Z,1.00
2023-01-10T01:22:58.460Z,1.20
2023-01-10T01:23:10.401Z,1.20
2023-01-10T01:23:23.332Z,1.23
2023-01-10T01:23:35.850Z,1.20
2023-01-10T01:23:47.853Z,1.20
2023-01-10T01:23:59.905Z,1.17
2023-01-10T01:24:12.053Z,1.20
2023-01-10T01:24:24.899Z,1.30
2023-01-10T01:24:36.874Z,1.20
2023-01-10T01:24:48.951Z,1.02
2023-01-10T01:25:01.005Z,1.20
2023-01-10T01:25:13.407Z,1.27
2023-01-10T01:25:25.422Z,1.38
2023-01-10T01:25:37.418Z,1.42
2023-01-10T01:25:53.615Z,1.55
2023-01-10T01:26:06.498Z,1.40
2023-01-10T01:26:18.458Z,1.35
2023-01-10T01:26:30.515Z,1.40
2023-01-10T01:26:42.782Z,1.40
2023-01-10T01:26:54.938Z,1.35
2023-01-10T01:27:06.971Z,1.20
2023-01-10T01:27:22.139Z,1.20
2023-01-10T01:27:35.052Z,1.25
2023-01-10T01:27:47.123Z,1.42
2023-01-10T01:27:59.121Z,1.55
2023-01-10T01:28:16.832Z,1.40
2023-01-10T01:28:28.784Z,1.50
2023-01-10T01:28:40.799Z,1.48
2023-01-10T01:28:52.826Z,1.40
2023-01-10T01:29:04.760Z,1.38
2023-01-10T01:29:18.071Z,1.20
2023-01-10T01:29:42.309Z,1.20
2023-01-10T01:29:55.219Z,1.17
2023-01-10T01:30:09.416Z,1.30
2023-01-10T01:30:23.985Z,1.48
2023-01-10T01:30:35.988Z,1.40
2023-01-10T01:30:48.444Z,1.45
2023-01-10T01:31:07.374Z,1.23
2023-01-10T01:31:19.910Z,1.27
2023-01-10T01:31:32.674Z,1.40
2023-01-10T01:31:44.717Z,1.42
2023-01-10T01:31:57.191Z,1.30
2023-01-10T01:32:09.262Z,1.30
2023-01-10T01:32:21.923Z,1.30
2023-01-10T01:32:34.343Z,1.52
2023-01-10T01:32:47.690Z,1.50
2023-01-10T01:32:59.874Z,1.42
2023-01-10T01:33:12.292Z,1.27
2023-01-10T01:33:24.406Z,1.10
2023-01-10T01:33:36.964Z,1.00
2023-01-10T01:33:49.136Z,1.00
2023-01-10T01:34:01.095Z,1.10
2023-01-10T01:34:13.076Z,1.10
2023-01-10T01:34:25.025Z,1.08
2023-01-10T01:34:37.124Z,1.00
2023-01-10T01:34:49.214Z,1.40
2023-01-10T01:35:01.369Z,1.40
2023-01-10T01:35:15.740Z,1.17
2023-01-10T01:35:27.776Z,1.20
2023-01-10T01:35:47.144Z,1.20
2023-01-10T01:35:59.172Z,1.05
2023-01-10T01:36:12.734Z,0.93
2023-01-10T01:36:24.662Z,1.05
2023-01-10T01:36:36.685Z,1.17
2023-01-10T01:36:48.641Z,1.25
2023-01-10T01:37:00.608Z,1.08
2023-01-10T01:37:12.679Z,0.95
2023-01-10T01:37:27.647Z,1.05
2023-01-10T01:37:39.818Z,1.20
2023-01-10T01:37:51.838Z,1.30
2023-01-10T01:38:03.811Z,1.27
2023-01-10T01:38:17.123Z,1.25
2023-01-10T01:38:29.131Z,1.20
2023-01-10T01:38:42.010Z,1.17
2023-01-10T01:38:54.033Z,1.10
2023-01-10T01:39:06.254Z,1.02
2023-01-10T01:39:18.274Z,0.93
2023-01-10T01:39:30.213Z,0.90
2023-01-10T01:39:42.198Z,0.95
2023-01-10T01:39:54.318Z,0.93
2023-01-10T01:40:07.503Z,0.90
2023-01-10T01:40:21.877Z,0.90
2023-01-10T01:40:33.897Z,1.00
2023-01-10T01:40:45.943Z,0.93
2023-01-10T01:40:57.936Z,1.13
2023-01-10T01:41:28.941Z,1.10
2023-01-10T01:42:00.154Z,1.20
2023-01-10T01:42:41.691Z,0.90
2023-01-10T01:42:55.928Z,1.02
2023-01-10T01:43:24.815Z,1.00
2023-01-10T01:44:05.285Z,0.82
2023-01-10T01:44:19.371Z,0.88
2023-01-10T01:44:35.684Z,0.90
2023-01-10T01:45:08.100Z,0.90
2023-01-10T01:45:22.696Z,1.00
2023-01-10T01:45:39.951Z,1.00
2023-01-10T01:45:52.757Z,1.00
2023-01-10T01:46:04.985Z,0.90
2023-01-10T01:46:16.991Z,0.85
2023-01-10T01:46:29.779Z,0.90
2023-01-10T01:46:45.239Z,0.82
2023-01-10T01:47:09.003Z,0.82
2023-01-10T01:47:26.699Z,0.90
2023-01-10T01:47:47.520Z,0.88
2023-01-10T01:48:12.952Z,0.93
2023-01-10T01:48:33.970Z,1.00
2023-01-10T01:48:46.386Z,0.80
2023-01-10T01:48:58.507Z,0.88
2023-01-10T01:49:17.408Z,0.90
2023-01-10T01:49:32.669Z,1.00
2023-01-10T01:49:45.512Z,1.00
2023-01-10T01:49:57.545Z,0.90
2023-01-10T01:50:59.318Z,1.02
2023-01-10T01:51:20.556Z,0.80
2023-01-10T01:51:34.748Z,0.90
2023-01-10T01:51:50.222Z,0.90
2023-01-10T01:52:08.924Z,0.85
2023-01-10T01:52:28.467Z,1.00
2023-01-10T01:52:40.484Z,1.00
2023-01-10T01:52:55.300Z,0.90
2023-01-10T01:53:17.183Z,0.90
2023-01-10T01:53:31.393Z,0.73
2023-01-10T01:53:53.244Z,0.73
2023-01-10T01:54:12.015Z,0.80
2023-01-10T01:54:24.074Z,0.70
2023-01-10T01:54:36.593Z,0.70
2023-01-10T01:54:48.828Z,0.80
2023-01-10T01:55:03.024Z,0.80
2023-01-10T01:55:15.533Z,0.80
2023-01-10T01:55:30.768Z,0.75
2023-01-10T01:55:45.139Z,0.77
2023-01-10T01:56:02.478Z,0.90
2023-01-10T01:56:22.004Z,0.80
2023-01-10T01:56:42.826Z,0.90
2023-01-10T01:57:01.903Z,0.88
2023-01-10T01:57:21.882Z,0.80
2023-01-10T01:57:34.668Z,0.70
2023-01-10T01:57:48.576Z,0.73
2023-01-10T01:58:06.531Z,0.93
2023-01-10T01:58:21.819Z,1.05
2023-01-10T01:58:44.105Z,0.88
2023-01-10T01:59:14.844Z,0.80
2023-01-10T01:59:41.024Z,0.77
2023-01-10T01:59:55.016Z,0.90
2023-01-10T02:00:10.880Z,0.80
2023-01-10T02:00:23.032Z,0.70
2023-01-10T02:00:35.459Z,0.80
2023-01-10T02:00:47.498Z,0.77
2023-01-10T02:00:59.733Z,0.90
2023-01-10T02:01:12.898Z,0.90
2023-01-10T02:01:26.508Z,0.90
2023-01-10T02:01:41.912Z,0.70
2023-01-10T02:01:57.970Z,0.60
2023-01-10T02:02:16.960Z,0.52
2023-01-10T02:02:34.603Z,0.60
2023-01-10T02:03:02.235Z,0.70
2023-01-10T02:03:15.297Z,0.70
2023-01-10T02:03:28.733Z,0.70
2023-01-10T02:03:42.674Z,0.70
2023-01-10T02:04:01.646Z,0.70
2023-01-10T02:04:21.444Z,0.70
2023-01-10T02:04:47.077Z,0.77
2023-01-10T02:05:12.650Z,1.00
2023-01-10T02:05:25.835Z,0.80
2023-01-10T02:05:40.091Z,0.70
2023-01-10T02:05:52.432Z,0.60
2023-01-10T02:06:04.800Z,0.70
2023-01-10T02:06:19.110Z,0.82
2023-01-10T02:06:31.212Z,0.85
2023-01-10T02:06:46.099Z,0.80
2023-01-10T02:06:59.373Z,0.70
2023-01-10T02:07:13.091Z,0.82
2023-01-10T02:07:28.547Z,0.80
2023-01-10T02:07:46.299Z,0.63
2023-01-10T02:08:02.011Z,0.80
2023-01-10T02:08:14.126Z,0.85
2023-01-10T02:08:26.240Z,0.88
2023-01-10T02:08:45.313Z,0.80
2023-01-10T02:09:07.603Z,0.90
2023-01-10T02:09:27.895Z,0.98
2023-01-10T02:09:48.801Z,1.00
2023-01-10T02:10:13.450Z,0.90
2023-01-10T02:10:39.237Z,0.75
2023-01-10T02:11:08.851Z,0.75
2023-01-10T02:11:21.005Z,0.80
2023-01-10T02:11:33.070Z,0.75
2023-01-10T02:11:45.425Z,0.82
2023-01-10T02:11:57.426Z,0.85
2023-01-10T02:12:10.185Z,0.90
2023-01-10T02:12:22.940Z,0.90
2023-01-10T02:12:35.975Z,0.90
2023-01-10T02:12:51.811Z,0.70
2023-01-10T02:13:05.972Z,0.80
2023-01-10T02:13:20.697Z,0.90
2023-01-10T02:13:33.491Z,0.80
2023-01-10T02:13:47.297Z,0.75
2023-01-10T02:14:00.156Z,0.80
2023-01-10T02:14:14.572Z,0.90
2023-01-10T02:14:26.959Z,0.80
2023-01-10T02:14:39.025Z,0.70
2023-01-10T02:14:52.616Z,0.70
2023-01-10T02:15:05.507Z,0.75
2023-01-10T02:15:18.470Z,0.80
2023-01-10T02:15:30.511Z,0.70
2023-01-10T02:15:42.786Z,0.60
2023-01-10T02:15:54.945Z,0.60
2023-01-10T02:16:08.098Z,0.65
2023-01-10T02:16:20.166Z,0.80
2023-01-10T02:16:32.229Z,0.70
2023-01-10T02:16:44.315Z,0.60
2023-01-10T02:16:56.251Z,0.68
2023-01-10T02:17:11.683Z,0.80
2023-01-10T02:17:23.707Z,0.90
2023-01-10T02:17:35.767Z,0.90
2023-01-10T02:17:50.098Z,0.73
2023-01-10T02:18:03.938Z,0.70
2023-01-10T02:18:16.866Z,0.70
2023-01-10T02:18:28.884Z,0.77
2023-01-10T02:18:42.609Z,0.80
2023-01-10T02:18:54.692Z,0.80
2023-01-10T02:19:19.778Z,0.70
2023-01-10T02:19:48.591Z,0.60
2023-01-10T02:20:10.209Z,0.70
2023-01-10T02:20:23.373Z,0.80
2023-01-10T02:21:13.991Z,0.77
2023-01-10T02:21:58.373Z,0.63
2023-01-10T02:22:47.149Z,0.90
2023-01-10T02:23:29.469Z,0.80
2023-01-10T02:24:29.961Z,0.88
2023-01-10T02:25:19.682Z,0.88
2023-01-10T02:26:07.778Z,0.80
2023-01-10T02:26:44.998Z,0.70
2023-01-10T02:27:22.429Z,0.80
2023-01-10T02:28:02.739Z,0.63
2023-01-10T02:28:27.375Z,0.70
2023-01-10T02:28:49.288Z,0.85
2023-01-10T02:29:03.874Z,0.65
2023-01-10T02:29:24.907Z,0.70
2023-01-10T02:30:09.259Z,0.80
2023-01-10T02:30:58.043Z,0.80
2023-01-10T02:31:47.390Z,1.00
2023-01-10T02:32:11.956Z,0.77
2023-01-10T02:32:45.885Z,0.63
2023-01-10T02:33:27.305Z,0.90
2023-01-10T02:34:13.096Z,0.82
2023-01-10T02:34:38.991Z,0.60
2023-01-10T02:35:32.960Z,0.70
2023-01-10T02:35:56.850Z,0.95
2023-01-10T02:36:19.609Z,0.73
2023-01-10T02:37:00.147Z,1.00
2023-01-10T02:37:33.767Z,0.80
2023-01-10T02:37:59.002Z,0.70
2023-01-10T02:38:37.213Z,0.80
2023-01-10T02:38:53.670Z,0.80
2023-01-10T02:39:36.619Z,0.80
2023-01-10T02:40:14.042Z,0.60
2023-01-10T02:40:49.964Z,0.60
2023-01-10T02:41:15.449Z,0.60
2023-01-10T02:41:39.430Z,0.63
2023-01-10T02:42:01.352Z,0.68
2023-01-10T02:42:26.828Z,0.70
2023-01-10T02:43:09.347Z,0.70
2023-01-10T02:43:27.190Z,0.70
2023-01-10T02:43:51.553Z,0.70
2023-01-10T02:44:12.025Z,0.60
2023-01-10T02:44:50.694Z,0.50
2023-01-10T02:45:12.082Z,0.60
2023-01-10T02:45:31.060Z,0.60
2023-01-10T02:46:13.263Z,0.52
2023-01-10T02:46:28.457Z,0.80
2023-01-10T02:46:40.888Z,0.65
2023-01-10T02:46:52.932Z,0.50
2023-01-10T02:47:09.736Z,0.60
2023-01-10T02:47:21.701Z,0.70
2023-01-10T02:47:41.151Z,0.60
2023-01-10T02:47:53.257Z,0.60
2023-01-10T02:48:05.336Z,0.70
2023-01-10T02:48:18.245Z,0.70
2023-01-10T02:48:30.240Z,0.70
2023-01-10T02:48:42.477Z,0.60
2023-01-10T02:48:56.067Z,0.60
2023-01-10T02:49:08.051Z,0.60
2023-01-10T02:49:20.078Z,0.60
2023-01-10T02:49:42.212Z,0.70
2023-01-10T02:49:54.214Z,0.65
2023-01-10T02:50:30.419Z,0.70
2023-01-10T02:50:42.287Z,0.70
2023-01-10T02:51:01.403Z,0.80
2023-01-10T02:51:20.584Z,0.70
2023-01-10T02:51:35.765Z,0.60
2023-01-10T02:51:50.606Z,0.50
2023-01-10T02:52:02.720Z,0.50
2023-01-10T02:52:19.665Z,0.50
2023-01-10T02:52:31.759Z,0.60
2023-01-10T02:52:43.830Z,0.60
2023-01-10T02:53:04.120Z,0.60
2023-01-10T02:53:31.075Z,0.70
2023-01-10T02:54:03.255Z,0.60
2023-01-10T02:54:20.155Z,0.70
2023-01-10T02:54:32.326Z,0.70
2023-01-10T02:54:45.059Z,0.60
2023-01-10T02:55:02.262Z,0.70
2023-01-10T02:55:14.268Z,0.75
2023-01-10T02:55:56.126Z,0.65
2023-01-10T02:56:45.104Z,0.60
2023-01-10T02:57:15.505Z,0.70
2023-01-10T02:57:45.934Z,0.60
2023-01-10T02:58:28.451Z,0.50
2023-01-10T02:58:42.907Z,0.40
2023-01-10T02:59:12.985Z,0.50
2023-01-10T02:59:49.275Z,0.60
2023-01-10T03:00:04.308Z,0.57
2023-01-10T03:00:28.186Z,0.55
2023-01-10T03:00:49.714Z,0.50
2023-01-10T03:01:30.007Z,0.70
2023-01-10T03:02:01.144Z,0.60
2023-01-10T03:02:22.645Z,0.50
2023-01-10T03:03:01.175Z,0.65
2023-01-10T03:03:27.257Z,0.60
2023-01-10T03:03:48.280Z,0.70
2023-01-10T03:04:24.394Z,0.73
2023-01-10T03:04:58.572Z,0.57
2023-01-10T03:05:27.684Z,0.50
2023-01-10T03:05:53.273Z,0.50
2023-01-10T03:06:23.555Z,0.60
2023-01-10T03:06:47.804Z,0.60
2023-01-10T03:07:12.985Z,0.60
2023-01-10T03:07:55.566Z,0.65
2023-01-10T03:08:42.919Z,0.60
2023-01-10T03:08:58.820Z,0.57
2023-01-10T03:09:25.716Z,0.70
2023-01-10T03:09:53.505Z,0.70
2023-01-10T03:10:21.759Z,0.60
2023-01-10T03:10:43.898Z,0.40
2023-01-10T03:11:00.704Z,0.50
2023-01-10T03:11:13.051Z,0.60
2023-01-10T03:11:42.198Z,0.60
2023-01-10T03:12:04.469Z,0.93
2023-01-10T03:12:25.013Z,1.00
2023-01-10T03:12:54.138Z,0.70
2023-01-10T03:13:13.330Z,0.60
2023-01-10T03:13:37.778Z,0.60
2023-01-10T03:13:58.281Z,0.63
2023-01-10T03:14:16.926Z,0.70
2023-01-10T03:14:31.273Z,0.60
2023-01-10T03:14:46.431Z,0.60
2023-01-10T03:15:00.522Z,0.70
2023-01-10T03:15:17.076Z,0.68
2023-01-10T03:15:32.983Z,0.60
2023-01-10T03:15:48.162Z,0.60
2023-01-10T03:16:02.600Z,0.65
2023-01-10T03:16:20.363Z,0.80
2023-01-10T03:16:37.474Z,0.95
2023-01-10T03:17:04.985Z,0.80
2023-01-10T03:17:19.411Z,0.63
2023-01-10T03:17:37.168Z,0.70
2023-01-10T03:17:55.397Z,0.90
2023-01-10T03:18:16.483Z,0.95
2023-01-10T03:18:33.606Z,0.95
2023-01-10T03:18:51.644Z,0.90
2023-01-10T03:19:08.557Z,0.85
2023-01-10T03:19:24.665Z,0.90
2023-01-10T03:19:47.254Z,0.85
2023-01-10T03:20:02.039Z,0.70
2023-01-10T03:20:14.707Z,0.73
2023-01-10T03:20:29.554Z,0.90
2023-01-10T03:20:45.652Z,0.80
2023-01-10T03:20:59.092Z,0.70
2023-01-10T03:21:12.776Z,0.85
2023-01-10T03:21:27.789Z,0.93
2023-01-10T03:21:43.188Z,0.80
2023-01-10T03:21:59.527Z,0.73
2023-01-10T03:22:13.117Z,0.70
2023-01-10T03:22:27.830Z,0.80
2023-01-10T03:22:41.224Z,0.80
2023-01-10T03:22:56.274Z,0.70
2023-01-10T03:23:09.748Z,0.70
2023-01-10T03:23:23.060Z,0.73
2023-01-10T03:23:36.058Z,0.80
2023-01-10T03:23:50.678Z,0.80
2023-01-10T03:24:09.370Z,0.82
2023-01-10T03:24:28.709Z,0.75
2023-01-10T03:24:44.903Z,0.68
2023-01-10T03:24:59.968Z,0.70
2023-01-10T03:25:15.132Z,0.70
2023-01-10T03:25:34.148Z,0.70
2023-01-10T03:25:47.807Z,0.70
2023-01-10T03:26:01.172Z,0.70
2023-01-10T03:26:15.065Z,0.65
2023-01-10T03:26:35.028Z,0.77
2023-01-10T03:27:03.131Z,0.80
2023-01-10T03:27:44.636Z,0.88
2023-01-10T03:28:08.270Z,0.80
2023-01-10T03:28:30.522Z,0.73
2023-01-10T03:28:52.473Z,0.70
2023-01-10T03:29:11.582Z,0.75
2023-01-10T03:29:38.070Z,0.50
2023-01-10T03:30:11.305Z,0.65
2023-01-10T03:30:43.005Z,0.70
2023-01-10T03:31:01.380Z,0.80
2023-01-10T03:31:40.089Z,0.77
2023-01-10T03:31:57.272Z,0.85
2023-01-10T03:32:11.939Z,0.73
2023-01-10T03:32:26.904Z,0.77
2023-01-10T03:32:38.943Z,0.80
2023-01-10T03:32:51.241Z,0.80
2023-01-10T03:33:04.758Z,0.70
2023-01-10T03:33:20.831Z,0.70
2023-01-10T03:33:34.679Z,0.75
2023-01-10T03:33:50.542Z,0.70
2023-01-10T03:34:03.011Z,0.88
2023-01-10T03:34:15.247Z,0.90
2023-01-10T03:34:27.588Z,0.90
2023-01-10T03:34:40.723Z,0.70
2023-01-10T03:34:54.120Z,0.80
2023-01-10T03:35:07.403Z,0.85
2023-01-10T03:35:22.387Z,0.90
2023-01-10T03:36:01.443Z,0.80
2023-01-10T03:36:32.215Z,0.80
2023-01-10T03:36:51.994Z,0.68
2023-01-10T03:37:13.216Z,0.82
2023-01-10T03:37:36.441Z,0.80
2023-01-10T03:38:01.549Z,0.85
2023-01-10T03:38:27.297Z,0.90
2023-01-10T03:38:49.654Z,1.00
2023-01-10T03:39:36.471Z,1.10
2023-01-10T03:39:55.418Z,0.80
2023-01-10T03:40:16.578Z,0.80